Hunt Field Lander US
ICAO: KLND
IATA: LND
Category: Medium
Scheduled Services: No

Elevation: 5586 ft
TransAlt. 18000 ft.

Airport Communications:
ASOS:118.15
CTAF/UNICOM:122.8

KLND Zoom In..

If Map Doesn't Load, Click Here

Runways:

(A) RW 03 length 5007 ft width 100 ft
---- / hdg 36

(B) RW 21 length 5007 ft width 100 ft
---- / hdg 216

Location; KLND
Day. 21 / Time. 15.53 Zulu
* Altimeter: 30.26
* Temperature: 11° c. 51.8°f.
* Wind from: 090° Speed 04 kn.
Dewpoint: 02° c.
Visibility: 10 Statute Miles.
Clouds: Clear (automated report).

KLND 211553Z AUTO 09004KT 10SM CLR 11/02 A3026 RMK AO2 SLP218 T01110017


Wind From 090°
Speed 04 kn.

 
 
jpsmedia.com for Web Design worldairports.se 2018   terms of use